PTN53P LSZB-LSGG
Flight info
| Callsign | PTN53P |
|---|---|
| Flight time | 0h 23m |
| Altitude | 13000 |
| Route | AMRID Z144 ESEVA/N0288F140 |
| Aircraft | PC24/M-SBDGIRWY/LB2 |
Departure
| Time | 2026-05-06 11:33 |
|---|---|
| Airport | Bern Airport (LSZB) |
Arrival
| Time | 2026-05-06 11:56 |
|---|---|
| Airport | Geneva International Airport (LSGG) |
| Time | Latitude | Longitude | Altitude | Speed | Heading |
|---|---|---|---|---|---|
| 2026-05-06 11:23 | 46.91236 | 7.50170 | 1679 ft | 0 kts | 90° |
| 2026-05-06 11:30 | 46.91236 | 7.50171 | 1679 ft | 0 kts | 95° |
| 2026-05-06 11:30 | 46.91220 | 7.50161 | 1684 ft | 8 kts | 238° |
| 2026-05-06 11:31 | 46.91216 | 7.50109 | 1681 ft | 2 kts | 208° |
| 2026-05-06 11:31 | 46.91163 | 7.50169 | 1679 ft | 19 kts | 139° |
| 2026-05-06 11:31 | 46.91059 | 7.50297 | 1681 ft | 17 kts | 142° |
| 2026-05-06 11:31 | 46.90972 | 7.50397 | 1682 ft | 15 kts | 140° |
| 2026-05-06 11:32 | 46.90909 | 7.50353 | 1679 ft | 10 kts | 261° |
| 2026-05-06 11:32 | 46.90924 | 7.50313 | 1679 ft | 0 kts | 321° |
| 2026-05-06 11:32 | 46.90936 | 7.50299 | 1678 ft | 19 kts | 320° |
| 2026-05-06 11:32 | 46.91310 | 7.49832 | 1685 ft | 121 kts | 314° |
| 2026-05-06 11:33 | 46.92154 | 7.48922 | 2305 ft | 173 kts | 322° |
| 2026-05-06 11:33 | 46.93377 | 7.47781 | 2695 ft | 251 kts | 326° |
| 2026-05-06 11:33 | 46.95018 | 7.46408 | 3482 ft | 275 kts | 329° |
| 2026-05-06 11:33 | 46.96607 | 7.45316 | 5955 ft | 227 kts | 334° |
| 2026-05-06 11:34 | 46.98271 | 7.44336 | 6305 ft | 277 kts | 334° |
| 2026-05-06 11:34 | 46.99733 | 7.43105 | 7518 ft | 219 kts | 304° |
| 2026-05-06 11:34 | 47.00110 | 7.41132 | 9033 ft | 201 kts | 257° |
| 2026-05-06 11:34 | 46.99411 | 7.39463 | 10555 ft | 191 kts | 226° |
| 2026-05-06 11:35 | 46.98560 | 7.37988 | 11878 ft | 192 kts | 228° |
| 2026-05-06 11:35 | 46.97596 | 7.36534 | 12824 ft | 209 kts | 223° |
| 2026-05-06 11:35 | 46.96333 | 7.35160 | 13000 ft | 236 kts | 211° |
| 2026-05-06 11:35 | 46.94883 | 7.34023 | 13005 ft | 244 kts | 210° |
| 2026-05-06 11:36 | 46.93499 | 7.32626 | 12996 ft | 236 kts | 225° |
| 2026-05-06 11:36 | 46.92527 | 7.30733 | 12990 ft | 232 kts | 233° |
| 2026-05-06 11:36 | 46.91536 | 7.28825 | 12931 ft | 236 kts | 231° |
| 2026-05-06 11:36 | 46.90531 | 7.26938 | 12895 ft | 233 kts | 231° |
| 2026-05-06 11:37 | 46.89535 | 7.25045 | 12885 ft | 235 kts | 232° |
| 2026-05-06 11:37 | 46.88551 | 7.23161 | 12880 ft | 235 kts | 231° |
| 2026-05-06 11:37 | 46.87555 | 7.21260 | 12877 ft | 235 kts | 232° |
| 2026-05-06 11:37 | 46.86558 | 7.19361 | 12878 ft | 234 kts | 231° |
| 2026-05-06 11:38 | 46.85596 | 7.17529 | 12508 ft | 228 kts | 231° |
| 2026-05-06 11:38 | 46.84643 | 7.15718 | 12242 ft | 218 kts | 231° |
| 2026-05-06 11:38 | 46.83708 | 7.13942 | 12161 ft | 224 kts | 232° |
| 2026-05-06 11:38 | 46.82749 | 7.12121 | 12074 ft | 227 kts | 231° |
| 2026-05-06 11:39 | 46.81781 | 7.10282 | 11980 ft | 228 kts | 232° |
| 2026-05-06 11:39 | 46.80824 | 7.08467 | 11880 ft | 229 kts | 231° |
| 2026-05-06 11:39 | 46.79850 | 7.06620 | 11779 ft | 229 kts | 231° |
| 2026-05-06 11:39 | 46.78878 | 7.04779 | 11679 ft | 228 kts | 231° |
| 2026-05-06 11:40 | 46.77909 | 7.02943 | 11575 ft | 228 kts | 231° |
| 2026-05-06 11:40 | 46.76939 | 7.01107 | 11475 ft | 227 kts | 231° |
| 2026-05-06 11:40 | 46.75984 | 6.99303 | 11377 ft | 227 kts | 231° |
| 2026-05-06 11:40 | 46.75016 | 6.97473 | 11257 ft | 227 kts | 231° |
| 2026-05-06 11:41 | 46.74051 | 6.95650 | 11111 ft | 226 kts | 231° |
| 2026-05-06 11:41 | 46.73096 | 6.93849 | 11000 ft | 223 kts | 231° |
| 2026-05-06 11:41 | 46.72148 | 6.92062 | 10902 ft | 223 kts | 231° |
| 2026-05-06 11:41 | 46.71203 | 6.90280 | 10887 ft | 222 kts | 231° |
| 2026-05-06 11:42 | 46.70253 | 6.88491 | 10887 ft | 224 kts | 231° |
| 2026-05-06 11:42 | 46.69307 | 6.86711 | 10894 ft | 225 kts | 231° |
| 2026-05-06 11:42 | 46.68344 | 6.84900 | 10886 ft | 226 kts | 231° |
| 2026-05-06 11:42 | 46.67382 | 6.83090 | 10895 ft | 225 kts | 231° |
| 2026-05-06 11:43 | 46.66421 | 6.81286 | 10892 ft | 225 kts | 231° |
| 2026-05-06 11:43 | 46.65458 | 6.79476 | 10892 ft | 226 kts | 231° |
| 2026-05-06 11:43 | 46.64504 | 6.77686 | 10890 ft | 224 kts | 231° |
| 2026-05-06 11:44 | 46.62584 | 6.74088 | 10894 ft | 225 kts | 231° |
| 2026-05-06 11:44 | 46.61619 | 6.72284 | 10890 ft | 226 kts | 231° |
| 2026-05-06 11:44 | 46.60658 | 6.70482 | 10884 ft | 224 kts | 231° |
| 2026-05-06 11:44 | 46.59703 | 6.68696 | 10887 ft | 224 kts | 231° |
| 2026-05-06 11:45 | 46.58754 | 6.66924 | 10885 ft | 224 kts | 231° |
| 2026-05-06 11:45 | 46.57794 | 6.65131 | 10885 ft | 224 kts | 231° |
| 2026-05-06 11:45 | 46.57157 | 6.63940 | 10887 ft | 226 kts | 231° |
| 2026-05-06 11:45 | 46.56178 | 6.62116 | 10699 ft | 232 kts | 231° |
| 2026-05-06 11:46 | 46.55200 | 6.60292 | 10435 ft | 226 kts | 231° |
| 2026-05-06 11:46 | 46.54236 | 6.58495 | 10192 ft | 225 kts | 231° |
| 2026-05-06 11:46 | 46.53273 | 6.56703 | 9943 ft | 224 kts | 231° |
| 2026-05-06 11:46 | 46.52315 | 6.54920 | 9698 ft | 223 kts | 231° |
| 2026-05-06 11:47 | 46.51375 | 6.53170 | 9433 ft | 222 kts | 231° |
| 2026-05-06 11:47 | 46.50423 | 6.51402 | 9163 ft | 221 kts | 231° |
| 2026-05-06 11:47 | 46.49476 | 6.49644 | 8902 ft | 221 kts | 232° |
| 2026-05-06 11:47 | 46.48530 | 6.47887 | 8639 ft | 221 kts | 232° |
| 2026-05-06 11:48 | 46.47581 | 6.46128 | 8295 ft | 219 kts | 232° |
| 2026-05-06 11:48 | 46.46633 | 6.44443 | 7949 ft | 209 kts | 227° |
| 2026-05-06 11:48 | 46.45636 | 6.43006 | 7661 ft | 200 kts | 226° |
| 2026-05-06 11:48 | 46.44674 | 6.41592 | 7376 ft | 193 kts | 227° |
| 2026-05-06 11:49 | 46.43743 | 6.40220 | 7090 ft | 188 kts | 227° |
| 2026-05-06 11:49 | 46.42843 | 6.38899 | 6809 ft | 184 kts | 227° |
| 2026-05-06 11:49 | 46.41951 | 6.37590 | 6530 ft | 181 kts | 227° |
| 2026-05-06 11:49 | 46.41070 | 6.36300 | 6254 ft | 179 kts | 227° |
| 2026-05-06 11:50 | 46.40193 | 6.35015 | 5972 ft | 180 kts | 228° |
| 2026-05-06 11:50 | 46.39304 | 6.33712 | 5683 ft | 181 kts | 227° |
| 2026-05-06 11:50 | 46.38424 | 6.32428 | 5404 ft | 180 kts | 228° |
| 2026-05-06 11:50 | 46.37542 | 6.31138 | 5125 ft | 180 kts | 227° |
| 2026-05-06 11:51 | 46.36657 | 6.29827 | 4738 ft | 184 kts | 228° |
| 2026-05-06 11:51 | 46.35757 | 6.28491 | 4329 ft | 186 kts | 227° |
| 2026-05-06 11:51 | 46.34874 | 6.27189 | 4079 ft | 180 kts | 227° |
| 2026-05-06 11:51 | 46.34012 | 6.25919 | 3941 ft | 170 kts | 227° |
| 2026-05-06 11:52 | 46.33177 | 6.24685 | 3731 ft | 167 kts | 226° |
| 2026-05-06 11:52 | 46.32420 | 6.23571 | 3493 ft | 144 kts | 226° |
| 2026-05-06 11:52 | 46.31768 | 6.22612 | 3301 ft | 127 kts | 226° |
| 2026-05-06 11:52 | 46.31179 | 6.21741 | 3132 ft | 114 kts | 226° |
| 2026-05-06 11:53 | 46.30630 | 6.20933 | 2990 ft | 113 kts | 226° |
| 2026-05-06 11:53 | 46.30083 | 6.20127 | 2838 ft | 111 kts | 225° |
| 2026-05-06 11:53 | 46.29541 | 6.19331 | 2675 ft | 112 kts | 226° |
| 2026-05-06 11:53 | 46.28990 | 6.18520 | 2553 ft | 107 kts | 225° |
| 2026-05-06 11:54 | 46.28438 | 6.17712 | 2403 ft | 119 kts | 226° |
| 2026-05-06 11:54 | 46.27853 | 6.16846 | 2198 ft | 120 kts | 225° |
| 2026-05-06 11:54 | 46.27267 | 6.15985 | 2026 ft | 117 kts | 224° |
| 2026-05-06 11:54 | 46.26689 | 6.15136 | 1870 ft | 117 kts | 224° |
| 2026-05-06 11:55 | 46.26127 | 6.14317 | 1718 ft | 114 kts | 224° |
| 2026-05-06 11:55 | 46.25577 | 6.13499 | 1567 ft | 116 kts | 224° |
| 2026-05-06 11:55 | 46.25013 | 6.12672 | 1440 ft | 114 kts | 225° |
| 2026-05-06 11:55 | 46.24475 | 6.11877 | 1387 ft | 104 kts | 225° |
| 2026-05-06 11:56 | 46.24054 | 6.11274 | 1387 ft | 68 kts | 230° |
| 2026-05-06 11:56 | 46.23877 | 6.10949 | 1388 ft | 16 kts | 292° |
| 2026-05-06 11:56 | 46.23951 | 6.10838 | 1386 ft | 17 kts | 316° |
| 2026-05-06 11:56 | 46.24032 | 6.10719 | 1384 ft | 12 kts | 314° |
| 2026-05-06 11:57 | 46.23996 | 6.10618 | 1384 ft | 17 kts | 223° |
| 2026-05-06 11:57 | 46.23919 | 6.10499 | 1384 ft | 16 kts | 227° |
| 2026-05-06 11:57 | 46.23837 | 6.10381 | 1386 ft | 20 kts | 225° |
| 2026-05-06 11:57 | 46.23743 | 6.10242 | 1383 ft | 18 kts | 227° |
| 2026-05-06 11:58 | 46.23683 | 6.10133 | 1386 ft | 5 kts | 289° |
| 2026-05-06 11:58 | 46.23713 | 6.10080 | 1386 ft | 7 kts | 310° |
| 2026-05-06 11:58 | 46.23726 | 6.10028 | 1386 ft | 4 kts | 264° |
| 2026-05-06 11:58 | 46.23738 | 6.10004 | 1385 ft | 0 kts | 314° |